createdAt,value
2023-02-22T00:01:51.124Z,9.66
2023-02-22T00:04:21.261Z,10.02
2023-02-22T00:06:49.060Z,9.92
2023-02-22T00:09:20.765Z,9.96
2023-02-22T00:11:48.875Z,9.55
2023-02-22T00:14:18.043Z,9.66
2023-02-22T00:16:44.840Z,9.61
2023-02-22T00:19:11.463Z,9.59
2023-02-22T00:21:38.150Z,9.47
2023-02-22T00:24:23.112Z,9.18
2023-02-22T00:26:57.661Z,9.29
2023-02-22T00:29:25.556Z,9.34
2023-02-22T00:31:52.339Z,9.38
2023-02-22T00:34:19.045Z,9.64
2023-02-22T00:36:49.667Z,9.52
2023-02-22T00:39:16.440Z,9.43
2023-02-22T00:41:43.412Z,9.40
2023-02-22T00:44:10.437Z,9.55
2023-02-22T00:46:37.240Z,9.45
2023-02-22T00:49:05.318Z,9.33
2023-02-22T00:51:32.065Z,9.63
2023-02-22T00:53:58.692Z,9.44
2023-02-22T00:56:25.433Z,9.47
2023-02-22T00:58:52.113Z,9.67
2023-02-22T01:01:19.066Z,9.67
2023-02-22T01:03:46.061Z,9.61
2023-02-22T01:06:12.943Z,10.04
2023-02-22T01:08:44.399Z,9.77
2023-02-22T01:11:11.008Z,10.04
2023-02-22T01:13:38.389Z,9.96
2023-02-22T01:16:08.369Z,9.73
2023-02-22T01:18:38.104Z,9.79
2023-02-22T01:21:06.057Z,9.82
2023-02-22T01:23:33.250Z,9.63
2023-02-22T01:25:59.847Z,10.17
2023-02-22T01:28:26.752Z,9.81
2023-02-22T01:30:56.218Z,9.89
2023-02-22T01:33:23.037Z,9.55
2023-02-22T01:35:51.023Z,9.42
2023-02-22T01:38:17.690Z,9.57
2023-02-22T01:40:50.334Z,9.28
2023-02-22T01:43:29.765Z,8.71
2023-02-22T01:46:08.495Z,8.92
2023-02-22T01:48:49.639Z,8.98
2023-02-22T01:51:19.849Z,9.51
2023-02-22T01:53:52.934Z,9.12
2023-02-22T01:56:20.974Z,8.96
2023-02-22T01:58:54.083Z,8.84
2023-02-22T02:04:07.745Z,8.73
2023-02-22T02:06:35.980Z,8.68
2023-02-22T02:09:30.682Z,8.72
2023-02-22T02:12:00.970Z,9.06
2023-02-22T02:14:27.584Z,8.90
2023-02-22T02:16:56.317Z,8.94
2023-02-22T02:19:57.060Z,8.70
2023-02-22T02:22:29.943Z,8.74
2023-02-22T02:25:37.909Z,8.51
2023-02-22T02:28:26.436Z,8.51
2023-02-22T02:31:17.790Z,8.25
2023-02-22T02:33:54.820Z,8.38
2023-02-22T02:36:34.354Z,8.27
2023-02-22T02:39:29.431Z,8.43
2023-02-22T02:41:58.295Z,8.65
2023-02-22T02:44:33.124Z,8.87
2023-02-22T02:47:31.109Z,8.97
2023-02-22T02:50:07.010Z,8.90
2023-02-22T02:52:35.475Z,9.04
2023-02-22T02:55:04.124Z,8.80
2023-02-22T02:57:30.946Z,8.75
2023-02-22T02:59:57.537Z,8.49
2023-02-22T03:02:36.224Z,8.48
2023-02-22T03:05:15.224Z,8.37
2023-02-22T03:07:49.448Z,8.43
2023-02-22T03:10:52.082Z,8.38
2023-02-22T03:13:43.109Z,8.21
2023-02-22T03:16:21.312Z,8.20
2023-02-22T03:18:54.748Z,8.37
2023-02-22T03:21:28.629Z,8.03
2023-02-22T03:24:10.048Z,7.88
2023-02-22T03:27:09.529Z,8.07
2023-02-22T03:29:39.692Z,7.84
2023-02-22T03:32:11.675Z,7.87
2023-02-22T03:34:43.485Z,7.77
2023-02-22T03:37:19.926Z,8.05
2023-02-22T03:39:49.019Z,7.91
2023-02-22T03:42:23.278Z,8.13
2023-02-22T03:44:52.812Z,8.24
2023-02-22T03:47:25.888Z,8.49
2023-02-22T03:50:00.542Z,8.29
2023-02-22T03:52:27.505Z,8.27
2023-02-22T03:54:54.145Z,8.18
2023-02-22T03:57:26.827Z,8.09
2023-02-22T03:59:53.584Z,8.50
2023-02-22T04:02:20.820Z,8.37
2023-02-22T04:04:47.932Z,8.83
2023-02-22T04:07:15.004Z,8.56
2023-02-22T04:09:42.237Z,8.52
2023-02-22T04:12:09.012Z,8.52
2023-02-22T04:14:35.800Z,8.19
2023-02-22T04:17:02.324Z,8.16
2023-02-22T04:19:29.437Z,8.21
2023-02-22T04:21:56.091Z,8.41
2023-02-22T04:24:22.662Z,8.33
2023-02-22T04:26:50.173Z,8.41
2023-02-22T04:29:16.941Z,8.81
2023-02-22T04:31:43.539Z,8.06
2023-02-22T04:34:10.153Z,8.11
2023-02-22T04:36:36.794Z,8.36
2023-02-22T04:39:04.244Z,8.12
2023-02-22T04:41:31.618Z,8.21
2023-02-22T04:43:58.341Z,8.24
2023-02-22T04:46:24.933Z,8.03
2023-02-22T04:48:51.655Z,8.13
2023-02-22T04:51:19.908Z,8.14
2023-02-22T04:53:46.724Z,8.58
2023-02-22T04:56:13.320Z,8.27
2023-02-22T04:58:40.023Z,8.25
2023-02-22T05:01:06.552Z,8.41
2023-02-22T05:03:33.252Z,8.38
2023-02-22T05:05:59.873Z,8.28
2023-02-22T05:08:26.578Z,8.26
2023-02-22T05:10:53.198Z,8.68
2023-02-22T05:13:19.987Z,8.36
2023-02-22T05:15:47.861Z,8.39
2023-02-22T05:18:15.211Z,8.66
2023-02-22T05:20:41.859Z,8.77
2023-02-22T05:23:08.705Z,8.45
2023-02-22T05:25:35.424Z,8.40
2023-02-22T05:28:05.219Z,8.28
2023-02-22T05:30:35.595Z,8.56
2023-02-22T05:33:02.661Z,8.40
2023-02-22T05:35:29.481Z,8.43
2023-02-22T05:37:56.591Z,8.37
2023-02-22T05:40:26.335Z,8.89
2023-02-22T05:42:53.698Z,8.45
2023-02-22T05:45:22.812Z,8.70
2023-02-22T05:47:50.274Z,8.73
2023-02-22T05:50:19.713Z,8.71
2023-02-22T05:52:48.732Z,8.82
2023-02-22T05:55:17.393Z,8.64
2023-02-22T05:57:44.328Z,8.88
2023-02-22T06:00:16.506Z,8.99
2023-02-22T06:02:43.200Z,8.91
2023-02-22T06:05:09.867Z,8.93
2023-02-22T06:07:36.451Z,8.61
2023-02-22T06:10:03.440Z,8.64
2023-02-22T06:12:30.093Z,8.28
2023-02-22T06:14:56.716Z,8.29
2023-02-22T06:17:23.489Z,8.72
2023-02-22T06:19:50.062Z,8.45
2023-02-22T06:22:18.327Z,8.69
2023-02-22T06:24:45.306Z,8.48
2023-02-22T06:27:12.302Z,8.42
2023-02-22T06:29:38.934Z,8.66
2023-02-22T06:32:08.126Z,8.58
2023-02-22T06:34:34.755Z,8.73
2023-02-22T06:37:01.304Z,8.62
2023-02-22T06:39:27.966Z,8.98
2023-02-22T06:41:56.437Z,8.77
2023-02-22T06:44:23.865Z,8.67
2023-02-22T06:46:53.542Z,8.56
2023-02-22T06:49:20.455Z,8.65
2023-02-22T06:51:47.773Z,8.52
2023-02-22T06:54:14.926Z,8.56
2023-02-22T06:56:41.522Z,8.57
2023-02-22T06:59:08.599Z,8.73
2023-02-22T07:01:35.743Z,8.84
2023-02-22T07:04:03.014Z,8.82
2023-02-22T07:06:29.665Z,8.79
2023-02-22T07:08:56.405Z,8.77
2023-02-22T07:11:23.304Z,8.87
2023-02-22T07:13:49.997Z,8.81
2023-02-22T07:16:16.789Z,8.96
2023-02-22T07:18:43.405Z,9.38
2023-02-22T07:21:10.779Z,9.52
2023-02-22T07:23:38.460Z,9.67
2023-02-22T07:26:05.579Z,9.44
2023-02-22T07:28:32.264Z,9.90
2023-02-22T07:30:59.216Z,9.57
2023-02-22T07:33:26.929Z,9.72
2023-02-22T07:35:53.618Z,9.57
2023-02-22T07:38:21.280Z,9.28
2023-02-22T07:40:47.981Z,9.48
2023-02-22T07:43:22.586Z,9.12
2023-02-22T07:45:51.599Z,9.20
2023-02-22T07:48:19.935Z,9.34
2023-02-22T07:50:47.396Z,9.32
2023-02-22T07:53:16.935Z,9.56
2023-02-22T07:55:43.807Z,9.73
2023-02-22T07:58:15.242Z,9.91
2023-02-22T08:00:44.034Z,9.80
2023-02-22T08:03:13.143Z,9.67
2023-02-22T08:05:42.869Z,9.68
2023-02-22T08:08:09.466Z,9.70
2023-02-22T08:10:36.606Z,10.14
2023-02-22T08:13:05.219Z,10.27
2023-02-22T08:15:37.898Z,9.98
2023-02-22T08:18:09.144Z,9.99
2023-02-22T08:20:36.870Z,10.08
2023-02-22T08:23:05.892Z,10.10
2023-02-22T08:25:32.619Z,10.23
2023-02-22T08:28:02.112Z,10.21
2023-02-22T08:30:30.834Z,9.98
2023-02-22T08:32:58.583Z,10.11
2023-02-22T08:35:27.535Z,10.21
2023-02-22T08:37:57.477Z,10.09
2023-02-22T08:40:26.105Z,10.32
2023-02-22T08:42:52.708Z,10.08
2023-02-22T08:45:19.932Z,10.09
2023-02-22T08:47:47.401Z,10.22
2023-02-22T08:50:26.912Z,10.19
2023-02-22T08:52:55.909Z,10.26
2023-02-22T08:55:28.789Z,10.17
2023-02-22T08:57:55.538Z,10.36
2023-02-22T09:00:25.662Z,10.36
2023-02-22T09:02:53.103Z,10.51
2023-02-22T09:05:19.989Z,10.52
2023-02-22T09:07:46.872Z,10.65
2023-02-22T09:10:16.837Z,10.70
2023-02-22T09:12:43.481Z,10.77
2023-02-22T09:15:11.679Z,10.83
2023-02-22T09:17:38.782Z,11.00
2023-02-22T09:20:07.439Z,11.27
2023-02-22T09:22:34.261Z,11.44
2023-02-22T09:25:11.431Z,11.20
2023-02-22T09:27:43.746Z,11.09
2023-02-22T09:30:24.029Z,11.25
2023-02-22T09:32:55.558Z,11.22
2023-02-22T09:35:27.320Z,11.35
2023-02-22T09:37:58.986Z,11.31
2023-02-22T09:40:31.204Z,11.29
2023-02-22T09:43:14.241Z,11.23
2023-02-22T09:45:50.068Z,11.17
2023-02-22T09:48:22.477Z,10.98
2023-02-22T09:50:53.072Z,10.97
2023-02-22T09:53:33.152Z,11.01
2023-02-22T09:56:06.995Z,10.89
2023-02-22T09:58:40.226Z,10.94
2023-02-22T10:01:28.612Z,10.93
2023-02-22T10:04:23.350Z,10.68
2023-02-22T10:07:26.145Z,10.76
2023-02-22T10:09:56.752Z,10.86
2023-02-22T10:12:47.339Z,10.80
2023-02-22T10:15:41.900Z,11.13
2023-02-22T10:18:32.868Z,11.49
2023-02-22T10:21:11.708Z,11.32
2023-02-22T10:23:44.257Z,11.23
2023-02-22T10:26:17.024Z,11.28
2023-02-22T10:28:55.343Z,11.16
2023-02-22T10:31:36.542Z,11.09
2023-02-22T10:34:12.635Z,11.10
2023-02-22T10:36:39.325Z,11.03
2023-02-22T10:39:24.511Z,10.92
2023-02-22T10:41:55.735Z,11.01
2023-02-22T10:44:22.329Z,11.13
2023-02-22T10:46:49.843Z,11.21
2023-02-22T10:49:22.009Z,11.18
2023-02-22T10:52:01.031Z,11.07
2023-02-22T10:54:43.015Z,11.30
2023-02-22T10:57:12.166Z,11.20
2023-02-22T10:59:41.188Z,11.08
2023-02-22T11:02:23.564Z,11.17
2023-02-22T11:04:51.985Z,11.16
2023-02-22T11:07:21.915Z,11.35
2023-02-22T11:09:53.196Z,11.35
2023-02-22T11:12:48.633Z,11.24
2023-02-22T11:15:19.051Z,11.31
2023-02-22T11:17:47.685Z,11.41
2023-02-22T11:20:29.585Z,11.47
2023-02-22T11:23:01.006Z,11.82
2023-02-22T11:25:34.959Z,11.92
2023-02-22T11:28:17.617Z,11.71
2023-02-22T11:30:51.320Z,11.54
2023-02-22T11:33:23.939Z,11.62
2023-02-22T11:36:02.510Z,11.59
2023-02-22T11:38:34.544Z,11.51
2023-02-22T11:41:26.326Z,11.69
2023-02-22T11:43:54.452Z,11.90
2023-02-22T11:46:29.260Z,11.75
2023-02-22T11:49:04.811Z,11.86
2023-02-22T11:51:31.358Z,11.96
2023-02-22T11:54:28.973Z,11.92
2023-02-22T11:57:07.308Z,11.92
2023-02-22T11:59:56.138Z,11.99
2023-02-22T12:02:28.367Z,12.30
2023-02-22T12:05:10.148Z,12.25
2023-02-22T12:07:48.561Z,12.41
2023-02-22T12:10:18.685Z,12.46
2023-02-22T12:13:06.399Z,12.36
2023-02-22T12:15:47.151Z,12.40
2023-02-22T12:18:16.506Z,12.54
2023-02-22T12:21:07.995Z,12.63
2023-02-22T12:23:40.720Z,12.43
2023-02-22T12:26:34.980Z,12.49
2023-02-22T12:29:26.613Z,12.43
2023-02-22T12:32:07.028Z,12.52
2023-02-22T12:34:41.479Z,12.45
2023-02-22T12:37:23.904Z,12.41
2023-02-22T12:39:56.349Z,12.49
2023-02-22T12:43:01.623Z,12.57
2023-02-22T12:45:36.916Z,12.53
2023-02-22T12:48:27.971Z,12.90
2023-02-22T12:50:59.098Z,12.92
2023-02-22T12:53:34.911Z,12.90
2023-02-22T12:56:22.421Z,12.67
2023-02-22T12:58:55.670Z,12.86
2023-02-22T13:01:26.917Z,12.92
2023-02-22T13:03:54.382Z,12.96
2023-02-22T13:06:21.086Z,12.95
2023-02-22T13:09:02.407Z,12.98
2023-02-22T13:11:59.807Z,13.08
2023-02-22T13:14:26.575Z,13.14
2023-02-22T13:17:21.527Z,13.26
2023-02-22T13:19:54.017Z,13.44
2023-02-22T13:22:47.819Z,13.44
2023-02-22T13:25:22.822Z,13.42
2023-02-22T13:27:57.772Z,13.88
2023-02-22T13:30:36.569Z,13.85
2023-02-22T13:33:10.738Z,13.88
2023-02-22T13:35:47.490Z,14.10
2023-02-22T13:38:35.764Z,14.11
2023-02-22T13:41:05.688Z,14.03
2023-02-22T13:44:14.337Z,13.85
2023-02-22T13:46:44.179Z,13.78
2023-02-22T13:49:25.586Z,13.74
2023-02-22T13:51:56.782Z,13.90
2023-02-22T13:54:35.454Z,13.82
2023-02-22T13:57:05.358Z,14.01
2023-02-22T13:59:36.395Z,14.14
2023-02-22T14:02:08.217Z,14.19
2023-02-22T16:01:42.028Z,14.33
2023-02-22T16:04:18.261Z,14.33
2023-02-22T16:06:45.802Z,14.30
2023-02-22T16:09:22.978Z,14.52
2023-02-22T16:11:50.135Z,14.25
2023-02-22T16:14:39.395Z,14.41
2023-02-22T16:17:24.922Z,14.21
2023-02-22T16:19:52.866Z,14.14
2023-02-22T16:22:35.405Z,13.94
2023-02-22T16:25:25.255Z,14.02
2023-02-22T16:27:56.127Z,13.96
2023-02-22T16:30:55.235Z,13.90
2023-02-22T16:33:21.968Z,13.87
2023-02-22T16:35:57.101Z,13.74
2023-02-22T16:38:27.684Z,13.75
2023-02-22T16:40:59.425Z,13.66
2023-02-22T16:43:31.602Z,13.48
2023-02-22T16:45:58.918Z,13.67
2023-02-22T16:48:27.473Z,13.75
2023-02-22T16:50:55.934Z,13.75
2023-02-22T16:53:25.322Z,13.89
2023-02-22T16:55:57.833Z,13.99
2023-02-22T16:58:28.004Z,13.94
2023-02-22T17:00:57.296Z,13.83
2023-02-22T17:03:25.483Z,13.84
2023-02-22T17:05:52.344Z,13.63
2023-02-22T17:08:19.115Z,13.62
2023-02-22T17:10:46.518Z,13.44
2023-02-22T17:13:23.026Z,13.37
2023-02-22T17:15:51.624Z,13.26
2023-02-22T17:18:22.987Z,13.41
2023-02-22T17:20:51.617Z,13.40
2023-02-22T17:23:20.226Z,13.60
2023-02-22T17:26:03.358Z,13.32
2023-02-22T17:28:31.139Z,13.08
2023-02-22T17:31:01.233Z,12.98
2023-02-22T17:33:31.304Z,12.95
2023-02-22T17:36:01.783Z,13.06
2023-02-22T17:38:30.308Z,12.95
2023-02-22T17:40:59.030Z,12.83
2023-02-22T17:43:27.938Z,12.86
2023-02-22T17:45:55.079Z,12.75
2023-02-22T17:48:24.029Z,12.74
2023-02-22T17:50:51.724Z,12.64
2023-02-22T17:53:21.790Z,12.70
2023-02-22T17:55:49.514Z,12.78
2023-02-22T17:58:16.391Z,12.78
2023-02-22T18:00:46.261Z,12.79
2023-02-22T18:03:21.814Z,12.66
2023-02-22T18:05:50.405Z,12.42
2023-02-22T18:08:17.616Z,12.29
2023-02-22T18:10:45.520Z,12.41
2023-02-22T18:13:18.729Z,12.57
2023-02-22T18:15:46.937Z,12.52
2023-02-22T18:18:13.691Z,12.54
2023-02-22T18:20:45.106Z,12.39
2023-02-22T18:23:16.163Z,12.43
2023-02-22T18:26:03.728Z,12.54
2023-02-22T18:28:35.823Z,12.41
2023-02-22T18:31:07.728Z,12.64
2023-02-22T18:33:34.313Z,12.60
2023-02-22T18:36:00.897Z,12.44
2023-02-22T18:38:27.594Z,12.43
2023-02-22T18:41:06.261Z,12.14
2023-02-22T18:43:36.417Z,12.22
2023-02-22T18:46:10.095Z,12.24
2023-02-22T18:48:37.585Z,12.13
2023-02-22T18:51:07.223Z,12.08
2023-02-22T18:53:33.897Z,12.11
2023-02-22T18:56:08.880Z,12.17
2023-02-22T18:58:38.633Z,12.20
2023-02-22T19:01:07.164Z,12.21
2023-02-22T19:03:38.126Z,12.26
2023-02-22T19:06:10.470Z,12.36
2023-02-22T19:08:42.328Z,12.55
2023-02-22T19:11:18.004Z,12.45
2023-02-22T19:13:50.838Z,12.31
2023-02-22T19:16:22.256Z,12.48
2023-02-22T19:18:57.097Z,12.32
2023-02-22T19:21:25.163Z,12.49
2023-02-22T19:23:51.846Z,12.45
2023-02-22T19:26:24.227Z,12.34
2023-02-22T19:28:52.831Z,12.50
2023-02-22T19:31:26.488Z,12.28
2023-02-22T19:33:53.507Z,12.39
2023-02-22T19:36:23.124Z,12.70
2023-02-22T19:38:49.932Z,12.69
2023-02-22T19:41:21.927Z,12.42
2023-02-22T19:43:50.726Z,12.40
2023-02-22T19:46:17.939Z,12.37
2023-02-22T19:48:48.716Z,12.66
2023-02-22T19:51:17.182Z,12.51
2023-02-22T19:53:44.923Z,12.26
2023-02-22T19:56:16.321Z,12.48
2023-02-22T19:58:44.673Z,12.40
2023-02-22T20:01:12.592Z,12.34
2023-02-22T20:03:39.604Z,12.36
2023-02-22T20:06:09.200Z,12.34
2023-02-22T20:08:37.317Z,12.19
2023-02-22T20:11:05.814Z,12.36
2023-02-22T20:13:33.537Z,12.41
2023-02-22T20:16:00.613Z,12.16
2023-02-22T20:18:27.235Z,12.15
2023-02-22T20:20:53.914Z,12.23
2023-02-22T20:23:20.602Z,12.30
2023-02-22T20:25:57.038Z,12.28
2023-02-22T20:28:24.290Z,12.34
2023-02-22T20:30:51.779Z,12.37
2023-02-22T20:33:22.074Z,12.40
2023-02-22T20:35:48.839Z,12.41
2023-02-22T20:38:15.492Z,12.49
2023-02-22T20:40:42.595Z,12.55
2023-02-22T20:43:10.045Z,12.58
2023-02-22T20:45:37.690Z,12.57
2023-02-22T20:48:05.410Z,12.52
2023-02-22T20:50:33.175Z,12.53
2023-02-22T20:52:59.790Z,12.56
2023-02-22T20:55:26.627Z,12.70
2023-02-22T20:57:53.358Z,12.70
2023-02-22T21:00:19.996Z,12.58
2023-02-22T21:02:46.989Z,12.53
2023-02-22T21:05:16.487Z,12.45
2023-02-22T21:07:43.127Z,12.37
2023-02-22T21:10:09.871Z,12.40
2023-02-22T21:12:36.758Z,12.34
2023-02-22T21:15:03.706Z,12.43
2023-02-22T21:17:30.978Z,12.62
2023-02-22T21:19:58.647Z,12.70
2023-02-22T21:22:25.393Z,12.58
2023-02-22T21:24:52.253Z,12.56
2023-02-22T21:27:19.223Z,12.44
2023-02-22T21:29:45.859Z,12.30
2023-02-22T21:32:13.960Z,12.21
2023-02-22T21:34:40.947Z,12.25
2023-02-22T21:37:08.402Z,12.31
2023-02-22T21:39:35.576Z,12.12
2023-02-22T21:42:02.639Z,12.08
2023-02-22T21:44:29.973Z,12.13
2023-02-22T21:46:58.133Z,12.19
2023-02-22T21:49:26.360Z,12.23
2023-02-22T21:51:53.047Z,12.12
2023-02-22T21:54:20.102Z,12.47
2023-02-22T21:56:46.812Z,12.39
2023-02-22T21:59:18.815Z,12.37
2023-02-22T22:01:48.256Z,12.21
2023-02-22T22:04:20.212Z,12.12
2023-02-22T22:06:49.149Z,12.19
2023-02-22T22:09:18.738Z,12.25
2023-02-22T22:11:50.857Z,12.14
2023-02-22T22:14:23.168Z,12.13
2023-02-22T22:16:51.503Z,12.13
2023-02-22T22:19:18.338Z,12.09
2023-02-22T22:21:46.720Z,11.99
2023-02-22T22:24:13.503Z,11.92
2023-02-22T22:26:40.405Z,12.09
2023-02-22T22:29:10.487Z,12.13
2023-02-22T22:31:37.638Z,12.19
2023-02-22T22:34:05.028Z,12.13
2023-02-22T22:36:31.868Z,12.19
2023-02-22T22:38:58.474Z,12.16
2023-02-22T22:41:28.241Z,12.08
2023-02-22T22:43:55.512Z,12.00
2023-02-22T22:46:22.272Z,11.72
2023-02-22T22:48:48.942Z,12.01
2023-02-22T22:51:20.440Z,12.14
2023-02-22T22:53:49.150Z,12.17
2023-02-22T22:56:26.966Z,12.04
2023-02-22T22:58:56.158Z,12.04
2023-02-22T23:01:28.666Z,11.95
2023-02-22T23:04:03.669Z,12.02
2023-02-22T23:06:43.950Z,11.89
2023-02-22T23:09:19.564Z,11.98
2023-02-22T23:11:51.033Z,11.97
2023-02-22T23:14:20.734Z,12.03
2023-02-22T23:16:53.074Z,12.07
2023-02-22T23:19:20.292Z,12.08
2023-02-22T23:21:48.550Z,12.13
2023-02-22T23:24:17.699Z,12.25
2023-02-22T23:26:48.741Z,12.06
2023-02-22T23:29:20.713Z,12.04
2023-02-22T23:31:48.706Z,12.03
2023-02-22T23:34:21.487Z,12.16
2023-02-22T23:36:48.819Z,12.05
2023-02-22T23:39:17.985Z,11.98
2023-02-22T23:41:44.689Z,11.97
2023-02-22T23:44:17.425Z,11.75
2023-02-22T23:46:57.084Z,11.79
2023-02-22T23:55:20.917Z,11.67
2023-02-22T23:57:48.629Z,11.63
